Mogoca, Russia
Current Conditions -  °F | °C
As of 5:30 PM on Thursday 27 Nov 2014 (Local Time) from UIAA Reporting Station
Broken Clouds Broken Clouds  
Wind Chill: -13°   Ceiling: 20000
Heat Index:   Visibility: 6mi
Dew Point: -11°   Wind: 7mph
Humidity: 60%   Direction: 20°NNE
Pressure: 29.91"   Gusts: NA
Location:  53.75°N, 119.73°E
Report Text: UIAA 270830Z 02003MPS 9999 BKN200 M18/M24 Q1013 NOSIG RMKQFE701 29CLRD70
Loading
Personal Weather Stations






























Interactive Weather Map New forecast layout! Learn more

10-Day Weather Forecast

Advertisements
Track Severe Weather on mobile